createdAt,value
2024-04-17T00:01:38.979Z,9.07
2024-04-17T00:04:06.065Z,9.35
2024-04-17T00:06:32.865Z,9.52
2024-04-17T00:08:59.784Z,9.62
2024-04-17T00:11:26.442Z,9.70
2024-04-17T00:13:53.387Z,9.80
2024-04-17T00:16:20.106Z,9.84
2024-04-17T00:18:46.658Z,9.80
2024-04-17T00:21:13.701Z,9.82
2024-04-17T00:23:41.398Z,9.90
2024-04-17T00:26:08.017Z,9.91
2024-04-17T00:28:34.642Z,9.89
2024-04-17T00:31:03.606Z,9.60
2024-04-17T00:33:31.978Z,9.41
2024-04-17T00:35:59.062Z,9.33
2024-04-17T00:38:25.755Z,9.53
2024-04-17T00:40:52.542Z,9.51
2024-04-17T00:43:19.201Z,9.63
2024-04-17T00:45:45.777Z,9.72
2024-04-17T00:48:13.564Z,9.92
2024-04-17T00:50:40.550Z,10.01
2024-04-17T00:53:07.328Z,9.93
2024-04-17T00:55:34.011Z,9.88
2024-04-17T00:58:00.713Z,9.99
2024-04-17T01:00:29.837Z,9.88
2024-04-17T01:02:56.646Z,9.92
2024-04-17T01:05:23.576Z,9.98
2024-04-17T01:07:50.225Z,9.63
2024-04-17T01:10:16.787Z,9.64
2024-04-17T01:12:43.411Z,9.30
2024-04-17T01:15:09.992Z,9.58
2024-04-17T01:17:36.796Z,9.48
2024-04-17T01:20:04.634Z,9.71
2024-04-17T01:22:32.385Z,9.85
2024-04-17T01:24:59.436Z,9.66
2024-04-17T01:27:26.043Z,9.66
2024-04-17T01:29:53.375Z,9.79
2024-04-17T01:32:19.968Z,9.90
2024-04-17T01:34:47.678Z,9.73
2024-04-17T01:37:14.283Z,9.98
2024-04-17T01:39:40.869Z,9.91
2024-04-17T01:42:07.746Z,9.82
2024-04-17T01:44:34.561Z,9.60
2024-04-17T01:47:01.414Z,9.62
2024-04-17T01:49:28.304Z,9.29
2024-04-17T01:51:54.921Z,9.23
2024-04-17T01:54:21.530Z,9.44
2024-04-17T01:56:48.620Z,9.44
2024-04-17T01:59:15.958Z,9.40
2024-04-17T02:01:42.673Z,9.34
2024-04-17T02:04:09.335Z,9.68
2024-04-17T02:06:36.056Z,9.14
2024-04-17T02:09:02.699Z,8.95
2024-04-17T02:11:29.294Z,9.08
2024-04-17T02:13:55.993Z,9.17
2024-04-17T02:16:22.622Z,9.16
2024-04-17T02:18:49.252Z,9.23
2024-04-17T02:21:15.949Z,8.91
2024-04-17T02:23:42.579Z,9.11
2024-04-17T02:26:13.261Z,9.08
2024-04-17T02:28:40.250Z,9.37
2024-04-17T02:31:06.995Z,9.47
2024-04-17T02:33:33.658Z,8.87
2024-04-17T02:36:01.286Z,8.98
2024-04-17T02:38:28.196Z,8.80
2024-04-17T02:40:54.946Z,8.72
2024-04-17T02:43:21.639Z,8.82
2024-04-17T02:45:49.282Z,8.85
2024-04-17T02:48:15.916Z,7.94
2024-04-17T02:50:42.553Z,8.17
2024-04-17T02:53:09.260Z,7.86
2024-04-17T02:55:36.031Z,8.04
2024-04-17T02:58:02.679Z,8.19
2024-04-17T03:00:29.455Z,8.35
2024-04-17T03:02:56.325Z,8.32
2024-04-17T03:05:23.177Z,7.85
2024-04-17T03:07:49.852Z,8.26
2024-04-17T03:10:17.799Z,8.31
2024-04-17T03:12:44.472Z,8.76
2024-04-17T03:15:13.477Z,9.02
2024-04-17T03:17:40.800Z,9.07
2024-04-17T03:20:09.967Z,9.08
2024-04-17T03:22:36.781Z,8.20
2024-04-17T03:25:03.417Z,8.31
2024-04-17T03:27:30.028Z,8.23
2024-04-17T03:29:56.728Z,8.48
2024-04-17T03:32:23.294Z,8.68
2024-04-17T03:34:49.963Z,8.67
2024-04-17T03:37:22.082Z,8.77
2024-04-17T03:39:49.355Z,8.54
2024-04-17T03:42:17.373Z,8.41
2024-04-17T03:44:45.305Z,8.71
2024-04-17T03:47:12.353Z,8.77
2024-04-17T03:49:39.049Z,8.88
2024-04-17T03:52:05.988Z,8.72
2024-04-17T03:54:32.744Z,8.55
2024-04-17T03:57:01.880Z,8.50
2024-04-17T03:59:28.446Z,8.45
2024-04-17T04:01:55.386Z,8.35
2024-04-17T04:04:22.092Z,8.37
2024-04-17T04:06:52.489Z,8.76
2024-04-17T04:09:19.832Z,8.94
2024-04-17T04:11:46.479Z,8.49
2024-04-17T04:14:13.499Z,8.62
2024-04-17T04:16:40.167Z,8.40
2024-04-17T04:19:07.385Z,8.41
2024-04-17T04:21:34.296Z,8.62
2024-04-17T04:24:01.207Z,8.35
2024-04-17T04:26:27.850Z,8.13
2024-04-17T04:28:54.509Z,8.28
2024-04-17T04:31:21.158Z,8.37
2024-04-17T04:33:47.831Z,8.26
2024-04-17T04:36:14.574Z,8.56
2024-04-17T04:38:41.159Z,7.79
2024-04-17T04:41:10.208Z,7.97
2024-04-17T04:43:36.777Z,7.92
2024-04-17T04:46:03.384Z,7.82
2024-04-17T04:48:30.081Z,7.93
2024-04-17T04:50:56.754Z,8.42
2024-04-17T04:53:23.315Z,7.87
2024-04-17T04:55:50.344Z,7.71
2024-04-17T04:58:16.889Z,8.03
2024-04-17T05:00:43.694Z,8.36
2024-04-17T05:03:10.411Z,7.99
2024-04-17T05:05:37.499Z,7.85
2024-04-17T05:08:04.144Z,8.18
2024-04-17T05:10:30.954Z,8.36
2024-04-17T05:12:57.731Z,8.75
2024-04-17T05:15:24.334Z,8.72
2024-04-17T05:17:51.179Z,8.55
2024-04-17T05:20:17.836Z,8.83
2024-04-17T05:22:44.526Z,8.25
2024-04-17T05:25:11.237Z,8.73
2024-04-17T05:27:37.856Z,8.57
2024-04-17T05:30:05.460Z,8.70
2024-04-17T05:32:32.080Z,8.77
2024-04-17T05:34:58.828Z,8.54
2024-04-17T05:37:26.413Z,8.63
2024-04-17T05:39:53.541Z,8.64
2024-04-17T05:42:20.199Z,8.42
2024-04-17T05:44:46.715Z,8.12
2024-04-17T05:47:13.809Z,8.28
2024-04-17T05:49:40.724Z,8.55
2024-04-17T05:52:07.274Z,8.54
2024-04-17T05:54:33.846Z,8.65
2024-04-17T05:57:01.531Z,8.58
2024-04-17T06:05:09.811Z,8.34
2024-04-17T06:07:39.625Z,8.47
2024-04-17T06:10:06.383Z,8.10
2024-04-17T06:12:33.003Z,8.36
2024-04-17T06:14:59.548Z,8.44
2024-04-17T06:17:26.217Z,8.59
2024-04-17T06:19:53.116Z,8.39
2024-04-17T06:22:22.852Z,7.96
2024-04-17T06:24:49.420Z,8.23
2024-04-17T06:27:20.936Z,8.27
2024-04-17T06:29:47.526Z,8.58
2024-04-17T06:32:14.909Z,8.81
2024-04-17T06:34:41.967Z,8.94
2024-04-17T06:42:48.540Z,8.04
2024-04-17T06:45:15.580Z,8.65
2024-04-17T06:47:42.401Z,8.55
2024-04-17T06:50:09.558Z,8.67
2024-04-17T06:52:36.235Z,8.94
2024-04-17T06:55:05.300Z,9.07
2024-04-17T06:57:31.888Z,8.94
2024-04-17T07:00:01.196Z,8.38
2024-04-17T07:02:27.903Z,8.79
2024-04-17T07:04:54.578Z,8.53
2024-04-17T07:07:21.204Z,9.03
2024-04-17T07:09:47.991Z,8.95
2024-04-17T07:12:15.034Z,9.22
2024-04-17T07:14:41.666Z,9.51
2024-04-17T07:17:09.552Z,9.27
2024-04-17T07:19:36.543Z,9.06
2024-04-17T07:22:03.764Z,8.51
2024-04-17T07:24:31.551Z,8.90
2024-04-17T07:26:58.499Z,8.76
2024-04-17T07:29:25.092Z,9.31
2024-04-17T07:31:52.148Z,9.33
2024-04-17T07:34:19.194Z,9.20
2024-04-17T07:36:46.961Z,9.29
2024-04-17T07:39:14.002Z,9.21
2024-04-17T07:41:41.022Z,9.33
2024-04-17T07:44:07.994Z,9.21
2024-04-17T07:46:34.617Z,9.53
2024-04-17T07:49:01.686Z,9.47
2024-04-17T07:51:28.375Z,9.66
2024-04-17T08:05:13.205Z,9.72
2024-04-17T08:07:40.996Z,9.75
2024-04-17T08:10:07.717Z,8.98
2024-04-17T08:12:36.439Z,9.09
2024-04-17T08:15:03.691Z,8.82
2024-04-17T08:17:30.534Z,8.97
2024-04-17T08:19:57.317Z,9.19
2024-04-17T08:22:24.058Z,9.24
2024-04-17T08:24:50.755Z,9.40
2024-04-17T08:27:17.330Z,9.34
2024-04-17T08:29:44.569Z,9.52
2024-04-17T08:32:12.271Z,9.32
2024-04-17T08:34:39.059Z,9.59
2024-04-17T08:37:05.729Z,9.74
2024-04-17T08:39:32.329Z,9.55
2024-04-17T08:41:58.967Z,9.37
2024-04-17T08:44:27.982Z,9.51
2024-04-17T08:46:55.522Z,9.28
2024-04-17T08:49:22.327Z,9.56
2024-04-17T08:51:49.908Z,10.02
2024-04-17T08:54:16.505Z,10.06
2024-04-17T08:56:43.148Z,10.20
2024-04-17T08:59:09.866Z,10.21
2024-04-17T09:01:36.524Z,10.06
2024-04-17T09:04:03.640Z,10.06
2024-04-17T09:06:30.300Z,10.36
2024-04-17T09:08:56.867Z,10.50
2024-04-17T09:11:24.708Z,10.05
2024-04-17T09:13:51.356Z,9.73
2024-04-17T09:16:17.944Z,9.82
2024-04-17T09:18:46.000Z,9.86
2024-04-17T09:21:12.625Z,9.64
2024-04-17T09:23:39.351Z,9.62
2024-04-17T09:26:07.431Z,9.99
2024-04-17T09:28:34.124Z,10.24
2024-04-17T09:31:01.115Z,10.34
2024-04-17T09:33:27.708Z,9.59
2024-04-17T09:35:56.182Z,9.43
2024-04-17T09:38:25.433Z,8.90
2024-04-17T09:40:52.036Z,9.40
2024-04-17T09:43:22.541Z,8.56
2024-04-17T09:45:54.880Z,8.71
2024-04-17T09:48:22.736Z,9.05
2024-04-17T09:50:49.388Z,9.19
2024-04-17T09:53:27.838Z,8.83
2024-04-17T09:56:03.621Z,9.00
2024-04-17T09:58:30.263Z,8.75
2024-04-17T10:00:57.884Z,9.08
2024-04-17T10:03:24.638Z,9.07
2024-04-17T10:05:51.250Z,8.99
2024-04-17T10:08:18.036Z,9.10
2024-04-17T10:10:44.701Z,9.02
2024-04-17T10:13:11.354Z,8.54
2024-04-17T10:15:37.958Z,8.99
2024-04-17T10:18:04.856Z,9.14
2024-04-17T10:20:31.970Z,9.49
2024-04-17T10:23:01.418Z,9.21
2024-04-17T10:27:57.998Z,9.33
2024-04-17T10:30:26.170Z,9.51
2024-04-17T10:32:55.646Z,9.62
2024-04-17T10:35:22.593Z,9.39
2024-04-17T10:37:52.876Z,9.49
2024-04-17T10:40:20.452Z,9.63
2024-04-17T10:42:47.250Z,9.59
2024-04-17T10:45:13.871Z,9.64
2024-04-17T10:47:40.539Z,9.58
2024-04-17T10:50:07.365Z,9.50
2024-04-17T10:52:34.207Z,9.80
2024-04-17T10:55:01.220Z,10.05
2024-04-17T10:57:28.202Z,9.91
2024-04-17T10:59:55.078Z,10.14
2024-04-17T11:02:21.637Z,10.27
2024-04-17T11:04:48.224Z,10.02
2024-04-17T11:07:22.532Z,9.70
2024-04-17T11:09:52.710Z,10.17
2024-04-17T11:12:19.786Z,10.35
2024-04-17T11:14:46.403Z,10.34
2024-04-17T11:17:13.382Z,10.55
2024-04-17T11:19:41.345Z,10.50
2024-04-17T11:22:07.955Z,10.40
2024-04-17T11:24:34.569Z,10.36
2024-04-17T11:27:01.435Z,10.67
2024-04-17T11:29:34.059Z,10.67
2024-04-17T11:32:07.905Z,9.98
2024-04-17T11:34:34.544Z,10.21
2024-04-17T11:37:04.332Z,10.12
2024-04-17T11:39:32.955Z,9.75
2024-04-17T11:42:00.935Z,10.39
2024-04-17T11:50:10.772Z,10.54
2024-04-17T11:52:37.813Z,10.97
2024-04-17T11:55:04.457Z,11.03
2024-04-17T11:57:31.614Z,10.95
2024-04-17T11:59:58.404Z,11.32
2024-04-17T12:02:24.949Z,11.23
2024-04-17T12:04:51.708Z,11.09
2024-04-17T12:07:18.395Z,11.34
2024-04-17T12:09:45.025Z,11.46
2024-04-17T12:12:11.913Z,11.08
2024-04-17T12:14:38.502Z,11.12
2024-04-17T12:17:05.129Z,10.98
2024-04-17T12:19:31.783Z,11.23
2024-04-17T12:21:58.344Z,10.53
2024-04-17T12:24:25.286Z,10.50
2024-04-17T12:26:52.869Z,10.34
2024-04-17T12:29:20.059Z,10.62
2024-04-17T12:31:54.519Z,10.99
2024-04-17T12:34:22.575Z,11.13
2024-04-17T12:36:49.442Z,10.98
2024-04-17T12:39:16.851Z,11.20
2024-04-17T12:41:43.538Z,10.97
2024-04-17T12:44:10.208Z,10.70
2024-04-17T12:46:37.083Z,10.73
2024-04-17T12:49:07.243Z,10.84
2024-04-17T12:51:34.815Z,10.50
2024-04-17T12:54:01.437Z,10.38
2024-04-17T12:56:30.609Z,10.49
2024-04-17T12:58:57.323Z,10.64
2024-04-17T13:01:24.024Z,10.92
2024-04-17T13:03:50.734Z,10.57
2024-04-17T13:06:22.904Z,11.19
2024-04-17T13:08:51.284Z,10.70
2024-04-17T13:14:18.383Z,10.11
2024-04-17T13:16:45.602Z,9.70
2024-04-17T13:19:12.551Z,9.94
2024-04-17T13:21:40.114Z,10.22
2024-04-17T13:24:07.417Z,10.37
2024-04-17T13:26:34.271Z,10.24
2024-04-17T13:29:00.893Z,10.51
2024-04-17T13:31:27.563Z,10.51
2024-04-17T13:33:54.194Z,10.53
2024-04-17T13:36:21.074Z,10.93
2024-04-17T13:38:47.750Z,11.42
2024-04-17T13:41:14.662Z,11.29
2024-04-17T13:43:41.800Z,11.17
2024-04-17T13:46:08.731Z,11.57
2024-04-17T13:48:35.835Z,11.62
2024-04-17T13:51:02.539Z,11.38
2024-04-17T13:53:32.440Z,11.80
2024-04-17T13:55:59.415Z,11.85
2024-04-17T13:58:26.027Z,12.02
2024-04-17T14:00:52.821Z,12.07
2024-04-17T14:03:19.726Z,12.32
2024-04-17T14:05:46.369Z,12.03
2024-04-17T14:08:13.178Z,12.20
2024-04-17T14:10:40.153Z,10.93
2024-04-17T14:13:08.871Z,11.46
2024-04-17T14:15:39.479Z,11.02
2024-04-17T14:18:07.346Z,11.28
2024-04-17T14:20:34.069Z,10.48
2024-04-17T14:23:01.111Z,10.86
2024-04-17T14:25:27.767Z,11.35
2024-04-17T14:27:54.452Z,11.38
2024-04-17T14:30:23.546Z,11.17
2024-04-17T14:32:50.240Z,11.18
2024-04-17T14:35:17.185Z,11.33
2024-04-17T14:37:44.420Z,11.43
2024-04-17T14:40:12.094Z,11.53
2024-04-17T14:42:38.756Z,11.54
2024-04-17T14:45:08.012Z,11.42
2024-04-17T14:47:35.366Z,11.35
2024-04-17T14:50:02.303Z,11.30
2024-04-17T14:55:21.064Z,11.24
2024-04-17T14:57:47.881Z,11.07
2024-04-17T15:00:14.528Z,11.35
2024-04-17T15:02:41.109Z,11.82
2024-04-17T15:05:15.277Z,12.26
2024-04-17T15:07:42.767Z,12.58
2024-04-17T15:10:09.666Z,12.66
2024-04-17T15:12:36.357Z,12.61
2024-04-17T15:15:06.038Z,12.08
2024-04-17T15:17:32.887Z,12.04
2024-04-17T15:20:00.863Z,12.46
2024-04-17T15:22:27.439Z,12.11
2024-04-17T15:24:55.071Z,11.62
2024-04-17T15:27:21.670Z,12.03
2024-04-17T15:32:32.819Z,11.39
2024-04-17T15:34:59.737Z,11.28
2024-04-17T15:37:31.504Z,10.90
2024-04-17T15:39:59.623Z,10.85
2024-04-17T15:42:26.469Z,11.06
2024-04-17T15:44:54.343Z,11.09
2024-04-17T15:47:23.569Z,10.82
2024-04-17T15:49:51.887Z,11.10
2024-04-17T15:52:19.002Z,11.24
2024-04-17T15:54:46.732Z,11.99
2024-04-17T15:57:13.788Z,11.73
2024-04-17T15:59:40.553Z,12.12
2024-04-17T16:02:10.237Z,12.60
2024-04-17T16:04:37.005Z,12.64
2024-04-17T16:07:06.301Z,12.65
2024-04-17T16:09:33.095Z,12.60
2024-04-17T16:12:01.039Z,12.64
2024-04-17T16:14:27.631Z,12.21
2024-04-17T16:16:54.508Z,12.33
2024-04-17T16:19:21.310Z,12.59
2024-04-17T16:21:48.242Z,12.53
2024-04-17T16:24:14.978Z,12.65
2024-04-17T16:26:41.623Z,12.93
2024-04-17T16:29:08.467Z,12.80
2024-04-17T16:31:35.161Z,12.33
2024-04-17T16:39:39.206Z,12.87
2024-04-17T16:42:06.642Z,12.83
2024-04-17T16:44:33.242Z,12.51
2024-04-17T16:46:59.993Z,12.46
2024-04-17T16:49:27.717Z,12.41
2024-04-17T16:51:54.950Z,12.04
2024-04-17T16:54:21.850Z,12.10
2024-04-17T16:56:48.646Z,12.02
2024-04-17T16:59:16.401Z,12.14
2024-04-17T17:01:43.032Z,11.53
2024-04-17T17:04:09.897Z,11.64
2024-04-17T17:06:39.444Z,11.82
2024-04-17T17:09:07.098Z,11.87
2024-04-17T17:11:33.938Z,11.72
2024-04-17T17:14:01.614Z,11.77
2024-04-17T17:16:28.633Z,11.28
2024-04-17T17:18:55.512Z,11.69
2024-04-17T17:21:22.269Z,11.45
2024-04-17T17:23:49.947Z,11.38
2024-04-17T17:26:17.649Z,11.47
2024-04-17T17:28:44.409Z,11.43
2024-04-17T17:31:11.226Z,10.98
2024-04-17T17:33:38.463Z,11.20
2024-04-17T17:36:06.183Z,11.11
2024-04-17T17:38:35.614Z,11.34
2024-04-17T17:41:05.246Z,11.22
2024-04-17T17:43:31.820Z,11.29
2024-04-17T17:45:58.564Z,11.57
2024-04-17T17:48:25.452Z,11.25
2024-04-17T17:50:52.263Z,11.38
2024-04-17T17:53:19.300Z,10.90
2024-04-17T17:55:46.871Z,11.04
2024-04-17T18:01:00.430Z,11.50
2024-04-17T18:03:27.887Z,11.32
2024-04-17T18:05:55.635Z,11.12
2024-04-17T18:08:22.535Z,11.18
2024-04-17T18:10:49.566Z,11.09
2024-04-17T18:13:16.340Z,11.41
2024-04-17T18:15:43.215Z,11.52
2024-04-17T18:18:10.184Z,11.47
2024-04-17T18:20:37.051Z,11.14
2024-04-17T18:23:03.852Z,11.44
2024-04-17T18:25:30.569Z,11.34
2024-04-17T18:27:58.088Z,11.38
2024-04-17T18:30:25.187Z,11.56
2024-04-17T18:32:52.036Z,11.63
2024-04-17T18:35:19.060Z,11.41
2024-04-17T18:37:45.822Z,11.40
2024-04-17T18:40:12.793Z,11.19
2024-04-17T18:42:39.527Z,10.17
2024-04-17T18:45:06.360Z,10.44
2024-04-17T18:47:33.139Z,10.53
2024-04-17T18:49:59.972Z,10.78
2024-04-17T18:52:29.443Z,10.77
2024-04-17T18:54:56.424Z,10.72
2024-04-17T19:00:04.272Z,10.84
2024-04-17T19:02:33.740Z,10.65
2024-04-17T19:05:00.638Z,10.38
2024-04-17T19:07:27.710Z,10.49
2024-04-17T19:09:55.562Z,10.65
2024-04-17T19:12:22.275Z,10.69
2024-04-17T19:14:49.854Z,10.94
2024-04-17T19:17:16.548Z,11.04
2024-04-17T19:19:43.278Z,11.01
2024-04-17T19:22:10.049Z,10.83
2024-04-17T19:24:38.083Z,10.34
2024-04-17T19:27:05.167Z,10.77
2024-04-17T19:29:46.227Z,10.51
2024-04-17T19:32:18.854Z,10.29
2024-04-17T19:34:45.743Z,10.52
2024-04-17T19:37:12.734Z,10.17
2024-04-17T19:39:43.950Z,10.38
2024-04-17T19:42:15.100Z,10.70
2024-04-17T19:44:48.404Z,10.74
2024-04-17T19:47:15.160Z,10.21
2024-04-17T19:49:41.879Z,10.31
2024-04-17T19:52:11.435Z,9.82
2024-04-17T19:54:40.011Z,10.20
2024-04-17T19:57:07.042Z,9.76
2024-04-17T19:59:35.721Z,9.91
2024-04-17T20:02:03.241Z,10.00
2024-04-17T20:04:31.360Z,9.81
2024-04-17T20:06:58.643Z,9.76
2024-04-17T20:09:26.238Z,9.70
2024-04-17T20:11:53.692Z,9.63
2024-04-17T20:14:20.544Z,10.01
2024-04-17T20:16:48.011Z,10.04
2024-04-17T20:19:14.971Z,10.21
2024-04-17T20:21:44.164Z,10.11
2024-04-17T20:24:10.927Z,9.61
2024-04-17T20:26:38.460Z,9.95
2024-04-17T20:29:07.781Z,10.05
2024-04-17T20:31:35.275Z,9.52
2024-04-17T20:34:02.047Z,9.28
2024-04-17T20:36:28.989Z,9.65
2024-04-17T20:38:55.805Z,9.45
2024-04-17T20:41:22.884Z,9.55
2024-04-17T20:43:49.606Z,9.72
2024-04-17T20:46:16.375Z,9.47
2024-04-17T20:48:43.549Z,9.74
2024-04-17T20:51:10.355Z,9.57
2024-04-17T20:53:37.794Z,9.64
2024-04-17T20:56:05.319Z,9.60
2024-04-17T20:58:32.155Z,9.88
2024-04-17T21:00:59.263Z,9.43
2024-04-17T21:03:26.060Z,9.76
2024-04-17T21:05:52.720Z,9.40
2024-04-17T21:08:19.461Z,9.43
2024-04-17T21:10:46.145Z,9.28
2024-04-17T21:13:12.784Z,9.55
2024-04-17T21:15:41.182Z,9.60
2024-04-17T21:18:10.531Z,9.70
2024-04-17T21:20:38.228Z,9.67
2024-04-17T21:23:07.877Z,9.55
2024-04-17T21:25:36.233Z,9.72
2024-04-17T21:28:03.542Z,9.60
2024-04-17T21:30:30.162Z,9.11
2024-04-17T21:32:59.415Z,8.97
2024-04-17T21:35:27.097Z,9.13
2024-04-17T21:37:54.248Z,9.29
2024-04-17T21:40:22.472Z,9.32
2024-04-17T21:42:52.408Z,9.47
2024-04-17T21:45:19.318Z,9.76
2024-04-17T21:47:46.597Z,9.58
2024-04-17T21:53:04.245Z,9.64
2024-04-17T21:55:30.924Z,9.54
2024-04-17T21:57:58.608Z,9.13
2024-04-17T22:00:25.610Z,9.28
2024-04-17T22:02:52.684Z,9.19
2024-04-17T22:05:22.300Z,9.32
2024-04-17T22:07:48.959Z,9.64
2024-04-17T22:10:15.570Z,9.76
2024-04-17T22:12:42.721Z,9.80
2024-04-17T22:15:09.762Z,9.86
2024-04-17T22:17:38.385Z,9.73
2024-04-17T22:20:04.944Z,9.64
2024-04-17T22:22:31.783Z,9.72
2024-04-17T22:24:58.763Z,9.87
2024-04-17T22:27:26.430Z,9.93
2024-04-17T22:29:53.353Z,10.01
2024-04-17T22:32:20.014Z,9.61
2024-04-17T22:34:46.880Z,9.70
2024-04-17T22:37:13.523Z,9.60
2024-04-17T22:39:51.974Z,9.40
2024-04-17T22:42:19.257Z,9.50
2024-04-17T22:44:46.389Z,9.15
2024-04-17T22:47:13.063Z,9.33
2024-04-17T22:49:42.995Z,9.10
2024-04-17T22:52:09.714Z,9.22
2024-04-17T22:54:36.633Z,9.48
2024-04-17T22:57:03.793Z,9.50
2024-04-17T22:59:30.378Z,9.54
2024-04-17T23:01:59.292Z,9.55
2024-04-17T23:04:26.134Z,9.35
2024-04-17T23:06:52.985Z,9.52
2024-04-17T23:09:22.111Z,9.56
2024-04-17T23:11:48.855Z,9.41
2024-04-17T23:14:16.098Z,9.47
2024-04-17T23:16:45.153Z,9.48
2024-04-17T23:19:17.048Z,9.26
2024-04-17T23:21:50.367Z,9.31
2024-04-17T23:24:17.190Z,9.37
2024-04-17T23:26:44.182Z,9.32
2024-04-17T23:29:10.830Z,9.02
2024-04-17T23:31:37.481Z,9.05
2024-04-17T23:34:04.118Z,8.56
2024-04-17T23:36:30.831Z,8.84
2024-04-17T23:38:59.230Z,8.76
2024-04-17T23:41:25.972Z,8.60
2024-04-17T23:43:53.547Z,8.52
2024-04-17T23:46:22.645Z,8.61
2024-04-17T23:48:49.710Z,8.50
2024-04-17T23:51:18.899Z,7.94
2024-04-17T23:53:48.789Z,8.20
2024-04-17T23:56:15.753Z,8.40
2024-04-17T23:58:42.379Z,8.42
